Oelwein, IA (50662)

02:16 CDT le 05 mai 2015 (GMT -0500)
Maplewood Dr | | Change Station
CLOSE
Current Station
Stations météorologiques personnelles
Location: Oelwein, IA
Altitude: 1135 ft
Stations météo à proximité

Alt. 1135 ft 42.69 °N, 91.91 °W | Updated 7 seconds ago

Pluie
Pluie
60.8 ° F
Paraît 60.8 ° F
N
1.3
Vent Variable Vent de ESE
Gusts 2.9 mph

Aujourd'hui
Haut(e) -- | Bas -- ° F
--% Risque de précip.
Hier
Haut(e) -- | Bas -- ° F
Precip. -- pouce
5:57 AM 8:12 PM
Pleine lune, 99% visible
Pression 30.13 pouce
Visibilité 4.0 Miles terrestres
Nuages Nuageux 1100 ft
Nuageux 4100 ft
Couvert 9000 ft
Point de rosée 58 ° F
Humidité 91%
Précipitations 0.00 pouce
Profondeur de la couche neigeuse Non disponible.
UV 0 sur 12
Pollen 3.40 sur 12
Qualité de l'air Non disponible.
Flu Activity Local Activity
METAR KOLZ 050655Z AUTO 11009KT 4SM BR BKN011 BKN041 OVC090 16/16 A3013 RMK AO2 P0002

More Conditions Fewer Conditions

Pression 30.13 pouce
Visibilité 4.0 Miles terrestres
Nuages Nuageux 1100 ft
Nuageux 4100 ft
Couvert 9000 ft
Point de rosée 58 ° F
Humidité 91%
Précipitations 0.00 pouce
Profondeur de la couche neigeuse Non disponible.
UV 0 sur 12
Pollen 3.40 sur 12
Qualité de l'air Non disponible.
Flu Activity Local Activity
METAR KOLZ 050655Z AUTO 11009KT 4SM BR BKN011 BKN041 OVC090 16/16 A3013 RMK AO2 P0002

More Conditions Fewer Conditions

Nepal has a long way to go to dig out and rebuild from a devastating earthquake. We have teamed up with several charities and organizations to make contributing to the relief effort as easy as possible.
How you can help: Portlight Strategies | Red Cross

10-Day Weather Forecast

Almanac

Astronomie

May. 05, 2015 Lever Coucher
Temps réel
Crépuscule civil
Crépuscule nautique
Crépuscule astronomique
Lune
Durée de lumière visible
Longueur du jour
Tomorrow will be .
, % of the Moon is Illuminated

Extrêmes aujourd'hui

State Highs State Lows

Community

WunderPhotos

Upload Photos

1,818,814 Photos téléchargées !

WunderBlogs® & News

Nearby

Qualité de l'air

  Qualité de l'air Indice de la qualité de l'air Polluant
Not available.

Épaisseur de neige

Station Depth Altitude

Activité sismique

Ville Distance Mag. Time & Date
Minimum magnitude displayed is 2.5.

Températures des eaux côtières

Lieu Température

Stations

Stations météo à proximité

Emplacement de la station Température Refroidissement éolien Point de rosée Humidité Vent Precip. Alt. Mise à jour Type